Skip Navigation Links
NOAA logo - Click to go to the NOAA homepage
NOAA's National Weather Service
Alaska Aviation Weather Unit
  NWS logo - Click to go to the NWS homepage
Left Navbar Graphic     08 AKDT = 16 GMT

   
NOAA is celebrating 200 years of science, service, and stewardship. Visit the NOAA 200th celebration Web site to learn more.
USA.gov is the U.S. Government's official Web portal to all Federal, state and local government Web resources and services.
Facebook
NWS on Facebook

Important Change Regarding the AAWU Web Presence

 

Over the last several months, the AAWU has been working to navigate its webpages to a nationally supported server. Security, as well as other needs, have necessitated the change.  In the process, we have made an effort to enhance the functionality of our website, as well as some of our products. As of June 20, 2017, aawu.arh.noaa.gov will be discontinued. The new AAWU web address is weather.gov/aawu. It is now live and will run in-parallel with the old site until it is discontinued. Please send any feedback or questions regarding the new webpages to nws.ar.aawu.webauthors@noaa.gov.  Thank you for your patience during this time of transition.
AAWU Home :: Display TAF Add Bookmark
TAF CYWJ 231410Z 2314/2323 31012KT P6SM FEW015 SCT040 BKN160 TEMPO
     2314/2323 P6SM -SHRA BKN040
    RMK NXT FCST BY 231800Z=

METAR CYWJ 231300Z 31011KT 30SM FEW015 SCT040 BKN160 10/07 A2957 RMK SC2SC2AC2 16.4/9.8/0/0 SLP025= METAR CYWJ 231400Z 31009KT 40SM VCSH FEW015 SCT025 BKN040 BKN160 09/07 A2958 RMK SC1SC2SC2AC2 SLP027= METAR CYWJ 231500Z 31011KT 40SM VCSH FEW015 SCT025 BKN045 BKN160 09/06 A2959 RMK SC1SC2SC2AC2 SLP030= METAR CYWJ 231600Z 29013KT 40SM FEW015 FEW025 SCT045 BKN170 11/06 A2958 RMK SC1SC1SC2AS2 SLP027 DENSITY ALT 800FT=
 Alaska TAF Map

NOAA's National Weather Service
Alaska Aviation Weather Unit
6930 Sand Lake Road
Anchorage, AK 99502-1845
Disclaimer
Credits
Glossary
Privacy Policy
About Us
Career Opportunities
Contact AAWU Internet Services Site last modified: April, 17th 2012